Vicosa, Brazil
Current Conditions -  °F | °C
As of 12:00 PM on Sunday 21 Dec 2014 (Local Time) from SBJU Reporting Station
Scattered Clouds Scattered Clouds  
Wind Chill: 91°   Ceiling: Unl
Heat Index: 97°   Visibility: 6mi
Dew Point: 70°   Wind: 7mph
Humidity: 49%   Direction: 140°SE
Pressure: 30.03"   Gusts: NA
Location:  5.99°S, 37.94°W
Report Text: SBJU 211500Z 14006KT 9999 SCT022 33/21 Q1017
Loading
Personal Weather Stations






























Interactive Weather Map New forecast layout! Learn more

10-Day Weather Forecast

Advertisements
Track Severe Weather on mobile